createdAt,value
2022-09-02T00:01:54.949Z,53.16
2022-09-02T00:04:25.880Z,53.30
2022-09-02T00:06:54.771Z,53.49
2022-09-02T00:09:25.615Z,53.75
2022-09-02T00:11:55.280Z,53.94
2022-09-02T00:14:29.467Z,54.09
2022-09-02T00:17:00.741Z,54.27
2022-09-02T00:19:30.488Z,54.38
2022-09-02T00:22:00.609Z,54.39
2022-09-02T00:24:30.778Z,54.44
2022-09-02T00:26:59.807Z,54.57
2022-09-02T00:29:29.550Z,54.77
2022-09-02T00:31:59.826Z,55.04
2022-09-02T00:34:30.389Z,55.27
2022-09-02T00:36:59.738Z,55.44
2022-09-02T00:39:29.408Z,55.63
2022-09-02T00:41:58.609Z,55.78
2022-09-02T00:44:28.776Z,55.92
2022-09-02T00:46:58.206Z,56.07
2022-09-02T00:49:32.522Z,56.22
2022-09-02T00:52:20.378Z,56.34
2022-09-02T00:54:54.222Z,56.50
2022-09-02T00:57:27.482Z,56.72
2022-09-02T01:00:08.631Z,56.89
2022-09-02T01:02:40.251Z,57.12
2022-09-02T01:05:12.550Z,57.32
2022-09-02T01:07:43.199Z,57.50
2022-09-02T01:10:16.320Z,57.66
2022-09-02T01:12:48.161Z,57.79
2022-09-02T01:15:18.232Z,57.93
2022-09-02T01:17:49.938Z,57.98
2022-09-02T01:20:25.429Z,58.13
2022-09-02T01:22:57.374Z,58.28
2022-09-02T01:25:31.970Z,58.29
2022-09-02T01:28:05.940Z,58.46
2022-09-02T01:30:38.183Z,58.78
2022-09-02T01:33:08.398Z,59.06
2022-09-02T01:35:39.049Z,59.16
2022-09-02T01:38:08.787Z,59.21
2022-09-02T01:40:40.410Z,59.19
2022-09-02T01:43:19.624Z,59.30
2022-09-02T01:45:53.324Z,59.36
2022-09-02T01:48:24.371Z,59.44
2022-09-02T01:50:58.243Z,59.63
2022-09-02T01:53:28.478Z,59.68
2022-09-02T01:55:58.000Z,59.69
2022-09-02T01:58:27.670Z,59.66
2022-09-02T02:00:56.992Z,59.57
2022-09-02T02:03:26.857Z,59.45
2022-09-02T02:06:00.594Z,59.42
2022-09-02T02:08:33.794Z,59.52
2022-09-02T02:11:04.885Z,59.53
2022-09-02T02:13:35.244Z,59.59
2022-09-02T02:16:05.497Z,59.72
2022-09-02T02:18:35.656Z,59.94
2022-09-02T02:21:05.142Z,60.18
2022-09-02T02:23:36.103Z,60.40
2022-09-02T02:26:08.243Z,60.55
2022-09-02T02:28:39.156Z,60.61
2022-09-02T02:31:10.577Z,60.63
2022-09-02T02:33:40.966Z,60.71
2022-09-02T02:36:11.396Z,60.79
2022-09-02T02:38:41.166Z,60.94
2022-09-02T02:41:10.899Z,61.00
2022-09-02T02:43:40.693Z,60.97
2022-09-02T02:46:10.078Z,60.95
2022-09-02T02:48:40.273Z,61.06
2022-09-02T02:51:09.476Z,61.14
2022-09-02T02:53:38.680Z,61.12
2022-09-02T02:56:07.788Z,61.15
2022-09-02T02:58:36.972Z,61.15
2022-09-02T03:01:07.901Z,61.02
2022-09-02T03:03:37.876Z,60.91
2022-09-02T03:06:07.555Z,60.90
2022-09-02T03:08:37.812Z,60.88
2022-09-02T03:11:09.221Z,60.81
2022-09-02T03:13:42.258Z,60.83
2022-09-02T03:16:12.606Z,60.95
2022-09-02T03:18:44.097Z,61.04
2022-09-02T03:21:15.667Z,61.16
2022-09-02T03:23:46.384Z,61.43
2022-09-02T03:26:19.691Z,61.48
2022-09-02T03:28:50.462Z,61.50
2022-09-02T03:31:21.242Z,61.52
2022-09-02T03:33:51.059Z,61.54
2022-09-02T03:36:30.225Z,61.67
2022-09-02T03:39:01.377Z,61.81
2022-09-02T03:41:30.960Z,61.94
2022-09-02T03:44:01.951Z,62.03
2022-09-02T03:46:34.193Z,62.08
2022-09-02T03:49:05.020Z,62.15
2022-09-02T03:51:34.659Z,62.30
2022-09-02T03:54:06.447Z,62.26
2022-09-02T03:56:36.896Z,62.23
2022-09-02T03:59:07.482Z,62.17
2022-09-02T04:01:38.840Z,62.14
2022-09-02T04:04:09.922Z,61.96
2022-09-02T04:06:40.456Z,61.81
2022-09-02T04:09:10.625Z,61.72
2022-09-02T04:11:42.905Z,61.66
2022-09-02T04:14:13.569Z,61.82
2022-09-02T04:16:43.165Z,62.01
2022-09-02T04:19:13.662Z,62.09
2022-09-02T04:21:43.273Z,62.06
2022-09-02T04:24:13.759Z,61.95
2022-09-02T04:26:45.966Z,61.90
2022-09-02T04:29:18.083Z,61.85
2022-09-02T04:31:50.271Z,61.74
2022-09-02T04:34:20.604Z,61.54
2022-09-02T04:36:53.077Z,61.37
2022-09-02T04:39:23.653Z,61.16
2022-09-02T04:41:55.055Z,60.89
2022-09-02T04:44:26.958Z,60.58
2022-09-02T04:46:57.758Z,60.25
2022-09-02T04:49:29.391Z,60.02
2022-09-02T04:52:00.088Z,59.87
2022-09-02T04:54:30.997Z,59.77
2022-09-02T04:57:02.100Z,59.58
2022-09-02T04:59:34.422Z,59.41
2022-09-02T05:02:08.562Z,59.17
2022-09-02T05:04:39.788Z,59.01
2022-09-02T05:07:11.965Z,58.76
2022-09-02T05:09:45.307Z,58.51
2022-09-02T05:12:15.528Z,58.33
2022-09-02T05:14:48.816Z,58.26
2022-09-02T05:17:20.564Z,57.96
2022-09-02T05:19:50.945Z,57.77
2022-09-02T05:22:21.763Z,57.36
2022-09-02T05:24:51.301Z,57.15
2022-09-02T05:27:21.713Z,56.95
2022-09-02T05:29:59.403Z,56.71
2022-09-02T05:32:35.576Z,56.45
2022-09-02T05:35:05.070Z,56.35
2022-09-02T05:37:36.027Z,56.31
2022-09-02T05:40:07.768Z,56.25
2022-09-02T05:42:39.679Z,55.91
2022-09-02T05:45:09.946Z,55.63
2022-09-02T05:47:40.447Z,55.43
2022-09-02T05:50:11.358Z,55.08
2022-09-02T05:52:43.527Z,54.92
2022-09-02T05:55:13.493Z,54.60
2022-09-02T05:57:46.099Z,54.32
2022-09-02T06:00:17.854Z,54.28
2022-09-02T06:02:52.867Z,53.82
2022-09-02T06:05:24.699Z,53.43
2022-09-02T06:07:57.902Z,53.21
2022-09-02T06:10:27.576Z,53.27
2022-09-02T06:12:57.142Z,53.41
2022-09-02T06:15:30.678Z,53.08
2022-09-02T06:18:01.197Z,52.76
2022-09-02T06:20:32.433Z,52.47
2022-09-02T06:23:04.114Z,52.46
2022-09-02T06:25:39.053Z,52.34
2022-09-02T06:28:10.716Z,52.35
2022-09-02T06:30:43.645Z,52.32
2022-09-02T06:33:13.614Z,51.70
2022-09-02T06:35:46.381Z,51.17
2022-09-02T06:38:18.107Z,50.97
2022-09-02T06:40:52.625Z,50.97
2022-09-02T06:43:24.196Z,51.30
2022-09-02T06:46:06.484Z,50.57
2022-09-02T06:48:36.831Z,50.17
2022-09-02T06:51:07.990Z,49.77
2022-09-02T06:53:38.961Z,49.46
2022-09-02T06:56:08.407Z,48.88
2022-09-02T06:58:40.517Z,48.27
2022-09-02T07:01:14.109Z,47.99
2022-09-02T07:04:02.741Z,47.75
2022-09-02T07:06:46.094Z,46.72
2022-09-02T07:09:22.024Z,45.54
2022-09-02T07:11:52.613Z,44.93
2022-09-02T07:14:24.906Z,43.59
2022-09-02T07:16:57.495Z,42.94
2022-09-02T07:19:28.756Z,42.81
2022-09-02T07:21:59.620Z,42.27
2022-09-02T07:24:29.234Z,42.22
2022-09-02T07:26:59.254Z,42.19
2022-09-02T07:29:29.841Z,42.07
2022-09-02T07:31:59.260Z,41.90
2022-09-02T07:34:30.643Z,41.54
2022-09-02T07:37:04.264Z,40.94
2022-09-02T07:39:32.660Z,40.69
2022-09-02T07:42:02.614Z,40.75
2022-09-02T07:44:34.159Z,40.88
2022-09-02T07:47:05.379Z,40.22
2022-09-02T07:52:07.274Z,38.92
2022-09-02T07:54:40.318Z,38.18
2022-09-02T07:57:09.690Z,37.72
2022-09-02T07:59:40.446Z,37.19
2022-09-02T08:02:14.228Z,36.66
2022-09-02T08:04:46.495Z,35.92
2022-09-02T08:07:18.831Z,35.85
2022-09-02T08:09:48.243Z,34.97
2022-09-02T08:12:20.186Z,34.92
2022-09-02T08:14:49.826Z,34.45
2022-09-02T08:17:18.585Z,33.49
2022-09-02T08:19:48.443Z,32.50
2022-09-02T08:22:17.777Z,32.31
2022-09-02T08:24:46.935Z,33.21
2022-09-02T08:27:16.452Z,33.86
2022-09-02T08:29:45.582Z,33.67
2022-09-02T08:32:15.720Z,32.79
2022-09-02T08:34:45.790Z,31.40
2022-09-02T08:37:23.238Z,31.86
2022-09-02T08:39:56.082Z,32.40
2022-09-02T08:42:38.234Z,32.29
2022-09-02T08:45:39.059Z,32.20
2022-09-02T08:48:21.070Z,31.88
2022-09-02T08:50:52.997Z,32.31
2022-09-02T08:53:52.494Z,32.41
2022-09-02T08:56:22.113Z,32.13
2022-09-02T08:58:56.957Z,31.85
2022-09-02T09:01:48.504Z,31.99
2022-09-02T09:04:47.462Z,32.03
2022-09-02T09:07:29.916Z,32.44
2022-09-02T09:10:38.484Z,32.15
2022-09-02T09:13:41.584Z,32.79
2022-09-02T09:16:32.455Z,32.83
2022-09-02T09:19:17.269Z,32.92
2022-09-02T09:21:47.178Z,32.81
2022-09-02T09:24:30.236Z,33.02
2022-09-02T09:26:59.429Z,32.50
2022-09-02T09:29:32.280Z,32.57
2022-09-02T09:32:02.298Z,32.48
2022-09-02T09:34:56.469Z,32.37
2022-09-02T09:37:36.523Z,32.57
2022-09-02T09:40:25.882Z,32.11
2022-09-02T09:43:14.534Z,31.87
2022-09-02T09:45:49.005Z,31.51
2022-09-02T09:48:26.479Z,31.51
2022-09-02T09:51:01.369Z,31.19
2022-09-02T09:53:33.858Z,31.23
2022-09-02T09:56:06.735Z,31.61
2022-09-02T09:58:46.581Z,31.19
2022-09-02T10:01:25.095Z,30.84
2022-09-02T10:04:01.940Z,30.50
2022-09-02T10:06:38.082Z,30.36
2022-09-02T10:09:24.947Z,31.42
2022-09-02T10:12:05.545Z,31.03
2022-09-02T10:14:47.612Z,31.03
2022-09-02T10:17:34.853Z,31.40
2022-09-02T10:20:20.297Z,31.26
2022-09-02T10:23:22.128Z,31.47
2022-09-02T10:26:08.940Z,30.63
2022-09-02T10:28:53.606Z,30.16
2022-09-02T10:31:51.813Z,30.23
2022-09-02T10:34:58.198Z,30.45
2022-09-02T10:37:56.380Z,30.42
2022-09-02T10:40:32.519Z,30.59
2022-09-02T10:43:08.424Z,30.40
2022-09-02T10:45:52.055Z,30.84
2022-09-02T10:48:40.848Z,30.97
2022-09-02T10:51:47.352Z,30.85
2022-09-02T10:54:47.492Z,30.81
2022-09-02T10:57:42.978Z,30.97
2022-09-02T11:00:20.322Z,31.07
2022-09-02T11:03:13.168Z,31.09
2022-09-02T11:05:57.051Z,30.87
2022-09-02T11:08:51.157Z,31.14
2022-09-02T11:11:40.918Z,30.93
2022-09-02T11:14:18.133Z,30.51
2022-09-02T11:17:12.996Z,30.63
2022-09-02T11:19:52.868Z,31.43
2022-09-02T11:22:35.390Z,31.22
2022-09-02T11:25:18.731Z,30.99
2022-09-02T11:27:57.631Z,30.59
2022-09-02T11:30:46.052Z,30.27
2022-09-02T11:33:46.915Z,30.37
2022-09-02T11:36:17.655Z,30.28
2022-09-02T11:39:04.474Z,29.88
2022-09-02T11:41:58.978Z,30.36
2022-09-02T11:44:34.500Z,30.29
2022-09-02T11:47:37.781Z,29.78
2022-09-02T11:50:19.461Z,29.96
2022-09-02T11:53:15.069Z,30.00
2022-09-02T11:56:01.826Z,29.56
2022-09-02T11:58:34.224Z,29.84
2022-09-02T12:01:27.891Z,30.26
2022-09-02T12:07:09.607Z,31.41
2022-09-02T12:09:55.699Z,31.61
2022-09-02T12:12:49.977Z,31.64
2022-09-02T12:15:17.884Z,31.79
2022-09-02T12:17:56.472Z,31.91
2022-09-02T12:20:51.142Z,31.71
2022-09-02T12:23:58.013Z,31.68
2022-09-02T12:26:41.788Z,31.78
2022-09-02T12:29:25.110Z,31.74
2022-09-02T12:31:54.877Z,31.66
2022-09-02T12:34:29.577Z,31.90
2022-09-02T12:37:00.057Z,31.89
2022-09-02T12:39:37.408Z,31.74
2022-09-02T12:42:31.451Z,31.79
2022-09-02T12:45:16.283Z,31.77
2022-09-02T12:48:15.989Z,31.78
2022-09-02T12:50:55.769Z,31.91
2022-09-02T12:53:40.189Z,31.59
2022-09-02T12:56:22.997Z,31.71
2022-09-02T12:58:56.797Z,31.85
2022-09-02T13:01:51.268Z,31.95
2022-09-02T13:04:49.560Z,32.03
2022-09-02T13:07:57.210Z,31.79
2022-09-02T13:10:58.929Z,31.55
2022-09-02T13:14:05.894Z,31.55
2022-09-02T13:17:33.017Z,31.48
2022-09-02T13:20:14.250Z,31.49
2022-09-02T13:22:55.250Z,31.71
2022-09-02T13:26:00.169Z,31.80
2022-09-02T13:28:43.246Z,31.80
2022-09-02T13:31:25.905Z,32.00
2022-09-02T13:34:03.637Z,31.85
2022-09-02T13:36:36.925Z,31.97
2022-09-02T13:39:19.080Z,32.05
2022-09-02T13:41:49.186Z,31.83
2022-09-02T13:44:26.383Z,31.96
2022-09-02T13:47:04.409Z,31.92
2022-09-02T13:49:40.396Z,31.94
2022-09-02T13:52:51.162Z,31.70
2022-09-02T13:54:57.395Z,31.67
2022-09-02T13:57:27.505Z,32.06
2022-09-02T13:59:57.236Z,32.15
2022-09-02T14:02:35.716Z,32.04
2022-09-02T14:05:19.409Z,31.96
2022-09-02T14:07:51.636Z,31.85
2022-09-02T14:10:23.161Z,31.99
2022-09-02T14:12:53.170Z,32.04
2022-09-02T14:15:28.545Z,32.06
2022-09-02T14:18:25.419Z,31.87
2022-09-02T14:21:11.908Z,32.11
2022-09-02T14:23:51.076Z,31.87
2022-09-02T14:26:30.799Z,31.93
2022-09-02T14:29:00.173Z,32.14
2022-09-02T14:31:32.138Z,32.12
2022-09-02T14:34:01.579Z,32.27
2022-09-02T14:36:37.126Z,32.48
2022-09-02T14:39:19.056Z,32.46
2022-09-02T14:41:51.859Z,32.21
2022-09-02T14:44:34.032Z,32.23
2022-09-02T14:47:07.728Z,32.25
2022-09-02T14:49:41.564Z,32.35
2022-09-02T14:52:23.492Z,32.30
2022-09-02T14:54:54.092Z,32.08
2022-09-02T14:57:33.038Z,32.03
2022-09-02T15:00:07.605Z,32.12
2022-09-02T15:02:39.123Z,32.23
2022-09-02T15:05:10.754Z,32.37
2022-09-02T15:07:41.067Z,32.33
2022-09-02T15:10:11.612Z,32.30
2022-09-02T15:12:53.128Z,32.33
2022-09-02T15:15:22.761Z,32.45
2022-09-02T15:17:51.524Z,32.51
2022-09-02T15:20:21.503Z,32.56
2022-09-02T15:22:52.981Z,32.40
2022-09-02T15:25:22.382Z,32.52
2022-09-02T15:27:51.924Z,32.31
2022-09-02T15:30:21.608Z,32.33
2022-09-02T15:32:52.321Z,32.20
2022-09-02T15:35:22.250Z,32.44
2022-09-02T15:37:52.020Z,32.57
2022-09-02T15:40:20.956Z,32.36
2022-09-02T15:42:50.379Z,32.54
2022-09-02T15:45:20.003Z,32.54
2022-09-02T15:47:50.295Z,32.58
2022-09-02T15:50:42.723Z,32.65
2022-09-02T15:53:15.367Z,32.75
2022-09-02T15:55:45.336Z,32.97
2022-09-02T15:58:15.381Z,32.83
2022-09-02T16:00:45.755Z,32.91
2022-09-02T16:03:17.273Z,33.10
2022-09-02T16:05:46.890Z,33.06
2022-09-02T16:08:16.494Z,33.02
2022-09-02T16:10:46.411Z,33.01
2022-09-02T16:13:15.713Z,33.03
2022-09-02T16:15:45.885Z,33.25
2022-09-02T16:18:15.645Z,33.40
2022-09-02T16:20:45.996Z,33.64
2022-09-02T16:23:15.109Z,33.74
2022-09-02T16:25:44.876Z,33.66
2022-09-02T16:28:15.349Z,33.77
2022-09-02T16:30:46.616Z,33.73
2022-09-02T16:33:16.410Z,33.48
2022-09-02T16:35:46.180Z,33.71
2022-09-02T16:38:15.423Z,33.75
2022-09-02T16:40:55.535Z,33.65
2022-09-02T16:43:24.701Z,33.60
2022-09-02T16:45:55.946Z,33.90
2022-09-02T16:48:25.935Z,33.85
2022-09-02T16:50:55.405Z,33.92
2022-09-02T16:53:25.455Z,33.96
2022-09-02T16:55:55.762Z,34.17
2022-09-02T16:58:25.673Z,34.17
2022-09-02T17:00:56.238Z,34.05
2022-09-02T17:03:25.604Z,34.07
2022-09-02T17:05:55.099Z,34.14
2022-09-02T17:08:24.825Z,34.10
2022-09-02T17:11:12.844Z,34.26
2022-09-02T17:13:42.682Z,34.38
2022-09-02T17:16:14.077Z,34.57
2022-09-02T17:18:43.434Z,34.73
2022-09-02T17:21:33.799Z,34.91
2022-09-02T17:24:05.101Z,34.96
2022-09-02T17:26:39.221Z,35.06
2022-09-02T17:29:26.251Z,35.13
2022-09-02T17:31:43.333Z,35.23
2022-09-02T17:34:13.522Z,35.19
2022-09-02T17:36:43.807Z,35.28
2022-09-02T17:39:18.026Z,35.43
2022-09-02T17:41:59.421Z,35.46
2022-09-02T17:44:33.556Z,35.58
2022-09-02T17:47:15.072Z,35.55
2022-09-02T17:49:45.122Z,35.64
2022-09-02T17:52:23.766Z,35.82
2022-09-02T17:54:53.529Z,35.66
2022-09-02T17:57:43.412Z,35.66
2022-09-02T18:00:18.378Z,35.60
2022-09-02T18:03:32.178Z,35.73
2022-09-02T18:06:17.912Z,35.73
2022-09-02T18:09:01.824Z,35.83
2022-09-02T18:11:31.618Z,35.85
2022-09-02T18:14:30.406Z,35.80
2022-09-02T18:17:31.901Z,35.81
2022-09-02T18:20:15.310Z,35.80
2022-09-02T18:23:24.845Z,35.82
2022-09-02T18:26:14.129Z,35.91
2022-09-02T18:28:57.969Z,35.98
2022-09-02T18:31:52.386Z,35.96
2022-09-02T18:34:54.129Z,36.06
2022-09-02T18:37:58.770Z,36.24
2022-09-02T18:40:46.582Z,36.30
2022-09-02T18:43:28.913Z,36.28
2022-09-02T18:46:00.640Z,36.33
2022-09-02T18:48:36.966Z,36.24
2022-09-02T18:51:35.853Z,36.32
2022-09-02T18:54:13.657Z,36.31
2022-09-02T18:56:49.758Z,36.43
2022-09-02T18:59:28.645Z,36.36
2022-09-02T19:02:00.426Z,36.36
2022-09-02T19:04:30.380Z,36.40
2022-09-02T19:07:20.064Z,36.37
2022-09-02T19:09:49.660Z,36.42
2022-09-02T19:12:19.890Z,36.41
2022-09-02T19:14:50.651Z,36.36
2022-09-02T19:17:20.341Z,36.26
2022-09-02T19:19:49.740Z,36.39
2022-09-02T19:22:22.468Z,36.39
2022-09-02T19:24:58.190Z,36.41
2022-09-02T19:27:36.815Z,36.38
2022-09-02T19:30:11.697Z,36.46
2022-09-02T19:32:43.696Z,36.55
2022-09-02T19:35:18.950Z,36.55
2022-09-02T19:37:51.440Z,36.69
2022-09-02T19:40:28.711Z,36.65
2022-09-02T19:42:57.969Z,36.92
2022-09-02T19:45:29.406Z,36.97
2022-09-02T19:48:06.941Z,36.98
2022-09-02T19:50:38.178Z,37.26
2022-09-02T19:53:26.023Z,37.30
2022-09-02T19:55:55.432Z,37.39
2022-09-02T19:58:24.316Z,37.35
2022-09-02T20:00:53.905Z,37.39
2022-09-02T20:03:22.929Z,37.60
2022-09-02T20:05:53.709Z,37.42
2022-09-02T20:08:24.959Z,37.50
2022-09-02T20:10:57.575Z,37.53
2022-09-02T20:13:27.471Z,37.35
2022-09-02T20:15:57.079Z,37.19
2022-09-02T20:18:27.676Z,36.97
2022-09-02T20:20:59.638Z,36.93
2022-09-02T20:23:30.497Z,36.84
2022-09-02T20:26:25.088Z,36.89
2022-09-02T20:29:14.638Z,37.03
2022-09-02T20:32:18.228Z,37.05
2022-09-02T20:34:54.466Z,36.81
2022-09-02T20:37:41.517Z,36.98
2022-09-02T20:40:45.421Z,36.95
2022-09-02T20:43:48.005Z,37.33
2022-09-02T20:47:02.922Z,37.46
2022-09-02T20:49:59.218Z,37.53
2022-09-02T20:52:52.003Z,37.74
2022-09-02T20:55:26.546Z,37.77
2022-09-02T20:58:29.144Z,37.57
2022-09-02T21:01:09.260Z,37.65
2022-09-02T21:04:14.275Z,37.59
2022-09-02T21:06:49.140Z,37.56
2022-09-02T21:09:23.701Z,37.62
2022-09-02T21:11:59.347Z,37.62
2022-09-02T21:14:33.922Z,37.68
2022-09-02T21:17:10.196Z,37.63
2022-09-02T21:19:46.408Z,37.72
2022-09-02T21:22:24.359Z,37.76
2022-09-02T21:25:06.868Z,37.97
2022-09-02T21:27:57.342Z,38.09
2022-09-02T21:30:28.212Z,38.38
2022-09-02T21:33:01.669Z,38.32
2022-09-02T21:35:45.324Z,38.36
2022-09-02T21:38:39.341Z,38.31
2022-09-02T21:41:32.215Z,38.33
2022-09-02T21:44:33.607Z,38.51
2022-09-02T21:47:26.157Z,38.64
2022-09-02T21:50:09.590Z,38.64
2022-09-02T21:53:00.373Z,38.69
2022-09-02T21:55:59.582Z,38.78
2022-09-02T21:58:55.626Z,38.85
2022-09-02T22:01:44.606Z,38.96
2022-09-02T22:04:48.509Z,38.98
2022-09-02T22:07:37.844Z,39.13
2022-09-02T22:10:28.930Z,39.19
2022-09-02T22:13:00.636Z,39.29
2022-09-02T22:16:13.192Z,39.37
2022-09-02T22:18:57.424Z,39.40
2022-09-02T22:21:45.638Z,39.38
2022-09-02T22:24:19.590Z,39.36
2022-09-02T22:26:55.970Z,39.29
2022-09-02T22:29:53.074Z,39.25
2022-09-02T22:32:30.971Z,39.30
2022-09-02T22:35:07.017Z,39.27
2022-09-02T22:37:57.860Z,39.37
2022-09-02T22:40:32.582Z,39.41
2022-09-02T22:43:10.195Z,39.41
2022-09-02T22:46:06.437Z,39.51
2022-09-02T22:49:01.530Z,39.64
2022-09-02T22:51:53.957Z,39.71
2022-09-02T22:54:25.115Z,39.81
2022-09-02T22:57:05.511Z,39.78
2022-09-02T23:00:07.394Z,39.82
2022-09-02T23:02:47.801Z,39.78
2022-09-02T23:05:45.199Z,39.79
2022-09-02T23:08:19.254Z,39.81
2022-09-02T23:10:53.182Z,39.90
2022-09-02T23:13:35.572Z,39.95
2022-09-02T23:16:19.981Z,39.99
2022-09-02T23:19:00.719Z,39.99
2022-09-02T23:22:05.963Z,39.97
2022-09-02T23:25:03.579Z,39.96
2022-09-02T23:27:58.328Z,39.96
2022-09-02T23:30:28.742Z,39.96
2022-09-02T23:33:21.306Z,39.89
2022-09-02T23:36:30.332Z,39.88
2022-09-02T23:39:23.323Z,39.88
2022-09-02T23:41:59.611Z,39.87
2022-09-02T23:44:29.620Z,39.92
2022-09-02T23:47:19.159Z,39.86
2022-09-02T23:50:15.305Z,39.87
2022-09-02T23:53:07.287Z,39.97
2022-09-02T23:55:57.263Z,40.00
2022-09-02T23:58:34.861Z,39.83
